Eddyville, KY

9:46 PM CDT on July 04, 2015 (GMT -0500)
The Ridge Eddycreek | | Change Station
CLOSE
Current Station
Personal Weather Station
Location: Eddyville, KY
Elevation: 471 ft
Nearby Weather Stations

Elev 471 ft 37.02 °N, 88.01 °W | Updated 40 seconds ago

Partly Cloudy
Partly Cloudy
71.0 °F
Feels Like 71.0 °F
N
0.0
Wind Variable Wind from WSW
Gusts 0.0 mph

Today
High -- | Low -- °F
--% Chance of Precip.
Yesterday
High -- | Low -- °F
Precip. -- in
5:37 AM 8:15 PM
Waning Gibbous, 88% visible
Pressure 30.01 in
Visibility 7.0 miles
Clouds Clear
Dew Point 70 °F
Humidity 99%
Rainfall 0.00 in
Snow Depth Not available.
UV 0 out of 12
Pollen 3.30 out of 12
Air Quality Not available.
Flu Activity Not available.
METAR K5M9 050235Z AUTO 00000KT 7SM CLR 21/21 A3001 RMK AO2 T02130208

More Conditions Fewer Conditions

Pressure 30.01 in
Visibility 7.0 miles
Clouds Clear
Dew Point 70 °F
Humidity 99%
Rainfall 0.00 in
Snow Depth Not available.
UV 0 out of 12
Pollen 3.30 out of 12
Air Quality Not available.
Flu Activity Not available.
METAR K5M9 050235Z AUTO 00000KT 7SM CLR 21/21 A3001 RMK AO2 T02130208

More Conditions Fewer Conditions

10-Day Weather Forecast

×

Almanac

Astronomy

Jul. 04, 2015 Rise Set
Actual Time
Civil Twilight
Nautical Twilight
Astronomical Twilight
Moon
Length of Visible Light
Length of Day
Tomorrow will be .
, % of the Moon is Illuminated

Today's Extremes

State Highs State Lows

Community

WunderPhotos

Upload Photos

1,835,172 photos uploaded!

WunderBlogs® & News

Nearby

Air Quality

  Air Quality AQ Index Pollutant
Not available.

Snow Depth

Station Depth Elevation

Earthquake Activity

City Distance Mag. Time & Date
Minimum magnitude displayed is 2.5.

Coastal Water Temperatures

Place Temperature

Stations

Nearby Weather Stations

Station Location Temp. Windchill Dew Point Humidity Wind Precip. Elev Updated Type